createdAt,value
2018-06-12T00:00:28.112Z,25.27
2018-06-12T00:02:54.123Z,25.35
2018-06-12T00:05:20.135Z,25.33
2018-06-12T00:07:46.185Z,25.34
2018-06-12T00:10:12.176Z,25.49
2018-06-12T00:12:38.166Z,25.33
2018-06-12T00:15:04.190Z,25.32
2018-06-12T00:17:30.185Z,25.36
2018-06-12T00:19:56.194Z,25.32
2018-06-12T00:22:22.180Z,25.33
2018-06-12T00:24:48.169Z,25.37
2018-06-12T00:27:14.225Z,25.33
2018-06-12T00:29:40.219Z,25.35
2018-06-12T00:32:06.311Z,25.33
2018-06-12T00:34:32.337Z,25.34
2018-06-12T00:36:58.346Z,25.30
2018-06-12T00:39:24.360Z,25.25
2018-06-12T00:41:50.377Z,25.27
2018-06-12T00:44:16.417Z,25.31
2018-06-12T00:46:42.400Z,25.30
2018-06-12T00:49:08.450Z,25.32
2018-06-12T00:51:34.442Z,25.29
2018-06-12T00:54:00.446Z,25.30
2018-06-12T00:56:26.440Z,25.32
2018-06-12T00:58:52.483Z,25.39
2018-06-12T01:01:18.533Z,25.30
2018-06-12T01:03:44.556Z,25.28
2018-06-12T01:06:10.585Z,25.34
2018-06-12T01:08:36.582Z,25.31
2018-06-12T01:11:02.599Z,25.30
2018-06-12T01:13:28.543Z,25.30
2018-06-12T01:15:54.548Z,25.29
2018-06-12T01:18:20.575Z,25.32
2018-06-12T01:20:46.616Z,25.28
2018-06-12T01:23:12.632Z,25.27
2018-06-12T01:25:38.734Z,25.29
2018-06-12T01:28:04.722Z,25.32
2018-06-12T01:30:30.713Z,25.32
2018-06-12T01:32:56.716Z,25.29
2018-06-12T01:35:22.745Z,25.27
2018-06-12T01:37:48.767Z,25.32
2018-06-12T01:40:14.724Z,25.30
2018-06-12T01:42:40.738Z,25.33
2018-06-12T01:45:06.804Z,25.28
2018-06-12T01:47:32.853Z,25.28
2018-06-12T01:49:58.850Z,25.24
2018-06-12T01:52:25.015Z,25.32
2018-06-12T01:54:51.126Z,25.33
2018-06-12T01:57:17.156Z,25.33
2018-06-12T01:59:43.180Z,25.28
2018-06-12T02:02:09.287Z,25.25
2018-06-12T02:04:35.416Z,25.26
2018-06-12T02:07:01.379Z,25.26
2018-06-12T02:09:27.387Z,25.28
2018-06-12T02:11:53.643Z,25.32
2018-06-12T02:14:19.671Z,25.23
2018-06-12T02:16:45.657Z,25.23
2018-06-12T02:19:11.665Z,25.27
2018-06-12T02:21:37.910Z,25.24
2018-06-12T02:24:04.010Z,25.22
2018-06-12T02:26:30.064Z,25.25
2018-06-12T02:28:56.094Z,25.29
2018-06-12T02:31:22.194Z,25.27
2018-06-12T02:33:48.385Z,25.24
2018-06-12T02:36:14.424Z,25.24
2018-06-12T02:38:40.455Z,25.26
2018-06-12T02:41:06.473Z,25.25
2018-06-12T02:43:32.483Z,25.26
2018-06-12T02:45:58.483Z,25.24
2018-06-12T02:48:24.493Z,25.26
2018-06-12T02:50:50.511Z,25.27
2018-06-12T02:53:16.488Z,25.26
2018-06-12T02:55:42.494Z,25.26
2018-06-12T02:58:08.497Z,25.27
2018-06-12T03:00:34.470Z,25.29
2018-06-12T03:03:00.460Z,25.28
2018-06-12T03:05:26.472Z,25.25
2018-06-12T03:07:52.462Z,25.28
2018-06-12T03:10:18.425Z,25.27
2018-06-12T03:12:44.403Z,25.28
2018-06-12T03:15:10.506Z,25.23
2018-06-12T03:17:36.500Z,25.27
2018-06-12T03:20:02.474Z,25.23
2018-06-12T03:22:28.498Z,25.28
2018-06-12T03:24:54.519Z,25.21
2018-06-12T03:27:20.543Z,25.22
2018-06-12T03:29:46.486Z,25.21
2018-06-12T03:32:12.542Z,25.22
2018-06-12T03:34:38.518Z,25.25
2018-06-12T03:37:04.471Z,25.24
2018-06-12T03:39:30.447Z,25.45
2018-06-12T03:41:56.429Z,25.23
2018-06-12T03:44:22.398Z,25.21
2018-06-12T03:46:48.360Z,25.23
2018-06-12T03:49:14.365Z,25.22
2018-06-12T03:51:40.365Z,25.20
2018-06-12T03:54:06.340Z,25.26
2018-06-12T03:56:32.307Z,25.19
2018-06-12T03:58:58.268Z,25.23
2018-06-12T04:01:24.240Z,25.22
2018-06-12T04:03:50.233Z,25.26
2018-06-12T04:06:16.236Z,25.20
2018-06-12T04:08:42.218Z,25.22
2018-06-12T04:11:08.208Z,25.22
2018-06-12T04:13:34.183Z,25.17
2018-06-12T04:16:00.158Z,25.20
2018-06-12T04:18:26.134Z,25.22
2018-06-12T04:20:52.221Z,25.19
2018-06-12T04:23:18.197Z,25.24
2018-06-12T04:25:44.239Z,25.22
2018-06-12T04:28:10.251Z,25.28
2018-06-12T04:30:36.229Z,25.37
2018-06-12T04:33:02.222Z,25.48
2018-06-12T04:35:28.183Z,25.53
2018-06-12T04:37:54.140Z,25.50
2018-06-12T04:40:20.140Z,25.39
2018-06-12T04:42:46.253Z,25.39
2018-06-12T04:45:12.212Z,25.55
2018-06-12T04:47:38.174Z,25.45
2018-06-12T04:50:04.250Z,25.42
2018-06-12T04:52:30.226Z,25.49
2018-06-12T04:54:56.189Z,25.38
2018-06-12T04:57:22.153Z,25.45
2018-06-12T04:59:48.157Z,25.43
2018-06-12T05:02:14.190Z,25.35
2018-06-12T05:04:40.170Z,25.39
2018-06-12T05:07:06.144Z,25.35
2018-06-12T05:09:32.145Z,25.38
2018-06-12T05:11:58.139Z,25.47
2018-06-12T05:14:24.151Z,25.42
2018-06-12T05:16:50.126Z,25.44
2018-06-12T05:19:16.082Z,25.34
2018-06-12T05:21:42.050Z,25.27
2018-06-12T05:24:08.005Z,25.24
2018-06-12T05:26:33.948Z,25.41
2018-06-12T05:29:02.148Z,25.49
2018-06-12T05:31:28.161Z,25.51
2018-06-12T05:33:54.113Z,25.27
2018-06-12T05:36:20.090Z,25.38
2018-06-12T05:38:46.047Z,25.38
2018-06-12T05:41:12.001Z,25.22
2018-06-12T05:43:37.969Z,25.15
2018-06-12T05:46:03.922Z,25.12
2018-06-12T05:48:29.901Z,25.07
2018-06-12T05:50:55.878Z,25.07
2018-06-12T05:53:21.838Z,25.09
2018-06-12T05:55:47.822Z,25.11
2018-06-12T05:58:13.798Z,25.12
2018-06-12T06:00:39.806Z,25.15
2018-06-12T06:03:05.792Z,25.09
2018-06-12T06:05:31.767Z,25.10
2018-06-12T06:07:57.719Z,25.13
2018-06-12T06:10:23.674Z,25.15
2018-06-12T06:12:49.638Z,25.17
2018-06-12T06:15:15.612Z,25.19
2018-06-12T06:17:41.563Z,25.13
2018-06-12T06:20:07.530Z,25.15
2018-06-12T06:22:33.512Z,25.23
2018-06-12T06:24:59.468Z,25.54
2018-06-12T06:27:25.463Z,25.23
2018-06-12T06:29:51.616Z,25.22
2018-06-12T06:32:17.563Z,25.39
2018-06-12T06:34:43.528Z,25.47
2018-06-12T06:37:09.553Z,25.57
2018-06-12T06:39:35.500Z,25.48
2018-06-12T06:42:01.457Z,25.50
2018-06-12T06:44:27.415Z,25.52
2018-06-12T06:46:53.374Z,25.44
2018-06-12T06:49:19.341Z,25.47
2018-06-12T06:51:45.345Z,25.47
2018-06-12T06:54:11.314Z,25.50
2018-06-12T06:56:37.273Z,25.53
2018-06-12T06:59:03.237Z,25.52
2018-06-12T07:01:29.207Z,25.47
2018-06-12T07:03:55.170Z,25.45
2018-06-12T07:06:21.161Z,25.45
2018-06-12T07:08:47.116Z,25.45
2018-06-12T07:11:13.109Z,25.37
2018-06-12T07:13:39.156Z,25.38
2018-06-12T07:16:05.279Z,25.41
2018-06-12T07:18:31.245Z,25.45
2018-06-12T07:20:57.231Z,25.45
2018-06-12T07:23:23.241Z,25.43
2018-06-12T07:25:49.205Z,25.47
2018-06-12T07:28:15.181Z,25.24
2018-06-12T07:30:41.127Z,25.37
2018-06-12T07:33:07.126Z,25.52
2018-06-12T07:35:33.101Z,25.49
2018-06-12T07:37:59.068Z,25.53
2018-06-12T07:40:25.042Z,25.53
2018-06-12T07:42:51.001Z,25.70
2018-06-12T07:45:16.989Z,25.61
2018-06-12T07:47:42.966Z,25.62
2018-06-12T07:50:08.957Z,25.60
2018-06-12T07:52:34.909Z,25.61
2018-06-12T07:55:00.895Z,25.61
2018-06-12T07:57:26.855Z,25.66
2018-06-12T07:59:52.815Z,25.60
2018-06-12T08:02:18.774Z,25.54
2018-06-12T08:04:44.734Z,25.53
2018-06-12T08:07:10.701Z,25.57
2018-06-12T08:09:36.651Z,25.58
2018-06-12T08:12:02.637Z,25.52
2018-06-12T08:14:28.582Z,25.63
2018-06-12T08:16:54.556Z,25.59
2018-06-12T08:19:20.540Z,25.54
2018-06-12T08:21:46.511Z,25.57
2018-06-12T08:24:12.463Z,25.58
2018-06-12T08:26:38.427Z,25.56
2018-06-12T08:29:04.443Z,25.71
2018-06-12T08:31:30.443Z,25.77
2018-06-12T08:33:56.437Z,25.79
2018-06-12T08:36:22.483Z,25.72
2018-06-12T08:38:48.436Z,25.81
2018-06-12T08:41:14.408Z,25.66
2018-06-12T08:43:40.368Z,25.56
2018-06-12T08:46:06.369Z,25.48
2018-06-12T08:48:32.352Z,25.50
2018-06-12T08:50:58.319Z,25.54
2018-06-12T08:53:24.271Z,25.47
2018-06-12T08:55:50.242Z,25.52
2018-06-12T08:58:16.223Z,25.50
2018-06-12T09:00:42.209Z,25.52
2018-06-12T09:03:08.188Z,25.45
2018-06-12T09:05:34.165Z,25.56
2018-06-12T09:08:00.138Z,25.55
2018-06-12T09:10:26.092Z,25.52
2018-06-12T09:12:52.050Z,25.57
2018-06-12T09:15:18.015Z,25.55
2018-06-12T09:17:44.010Z,25.59
2018-06-12T09:20:09.993Z,25.53
2018-06-12T09:22:35.966Z,25.59
2018-06-12T09:25:01.979Z,25.55
2018-06-12T09:27:27.936Z,25.55
2018-06-12T09:29:53.901Z,25.48
2018-06-12T09:32:19.853Z,25.53
2018-06-12T09:34:45.839Z,25.52
2018-06-12T09:37:11.788Z,25.51
2018-06-12T09:39:37.769Z,25.48
2018-06-12T09:42:03.733Z,25.45
2018-06-12T09:44:29.771Z,25.48
2018-06-12T09:46:55.772Z,25.48
2018-06-12T09:49:21.838Z,25.45
2018-06-12T09:51:47.903Z,25.50
2018-06-12T09:54:13.876Z,25.54
2018-06-12T09:56:39.914Z,25.46
2018-06-12T09:59:05.884Z,25.57
2018-06-12T10:01:32.127Z,25.62
2018-06-12T10:03:58.070Z,25.62
2018-06-12T10:06:24.034Z,25.49
2018-06-12T10:08:50.054Z,25.43
2018-06-12T10:11:16.010Z,25.53
2018-06-12T10:13:41.971Z,25.45
2018-06-12T10:16:07.949Z,25.44
2018-06-12T10:18:33.918Z,25.41
2018-06-12T10:20:59.914Z,25.37
2018-06-12T10:23:25.934Z,25.37
2018-06-12T10:25:51.917Z,25.51
2018-06-12T10:28:17.892Z,25.38
2018-06-12T10:30:43.876Z,25.30
2018-06-12T10:33:09.833Z,25.36
2018-06-12T10:35:35.793Z,25.20
2018-06-12T10:38:01.794Z,25.16
2018-06-12T10:40:27.795Z,25.15
2018-06-12T10:42:53.777Z,25.18
2018-06-12T10:45:19.760Z,25.26
2018-06-12T10:47:45.730Z,25.30
2018-06-12T10:50:11.682Z,25.28
2018-06-12T10:52:37.683Z,25.22
2018-06-12T10:55:03.691Z,25.17
2018-06-12T10:57:29.668Z,25.07
2018-06-12T10:59:55.640Z,25.10
2018-06-12T11:02:21.620Z,25.19
2018-06-12T11:04:47.573Z,25.17
2018-06-12T11:07:13.583Z,25.11
2018-06-12T11:09:39.589Z,25.07
2018-06-12T11:12:05.589Z,24.99
2018-06-12T11:14:31.584Z,24.98
2018-06-12T11:16:57.565Z,25.01
2018-06-12T11:19:23.535Z,25.02
2018-06-12T11:21:49.501Z,25.02
2018-06-12T11:24:15.487Z,25.03
2018-06-12T11:26:41.456Z,25.00
2018-06-12T11:29:07.431Z,25.04
2018-06-12T11:31:33.408Z,25.02
2018-06-12T11:33:59.568Z,24.99
2018-06-12T11:36:25.594Z,25.10
2018-06-12T11:38:51.568Z,25.02
2018-06-12T11:41:17.517Z,25.03
2018-06-12T11:43:43.510Z,24.99
2018-06-12T11:46:09.462Z,25.07
2018-06-12T11:48:35.429Z,25.01
2018-06-12T11:51:01.469Z,25.00
2018-06-12T11:53:27.380Z,25.11
2018-06-12T11:55:53.329Z,25.09
2018-06-12T11:58:19.337Z,25.05
2018-06-12T12:00:45.337Z,25.04
2018-06-12T12:03:11.330Z,25.06
2018-06-12T12:05:37.287Z,25.09
2018-06-12T12:08:03.262Z,25.09
2018-06-12T12:10:29.209Z,25.11
2018-06-12T12:12:55.128Z,25.09
2018-06-12T12:15:21.129Z,25.10
2018-06-12T12:17:47.115Z,25.06
2018-06-12T12:20:13.114Z,25.05
2018-06-12T12:22:39.089Z,25.08
2018-06-12T12:25:05.081Z,25.04
2018-06-12T12:27:31.124Z,25.12
2018-06-12T12:29:57.096Z,25.09
2018-06-12T12:32:23.084Z,25.12
2018-06-12T12:34:49.070Z,25.05
2018-06-12T12:37:15.048Z,25.08
2018-06-12T12:39:41.030Z,25.13
2018-06-12T12:42:07.000Z,25.12
2018-06-12T12:44:32.966Z,25.12
2018-06-12T12:46:58.955Z,25.23
2018-06-12T12:49:24.906Z,25.15
2018-06-12T12:51:50.890Z,25.01
2018-06-12T12:54:16.850Z,25.04
2018-06-12T12:56:42.851Z,25.01
2018-06-12T12:59:08.824Z,25.05
2018-06-12T13:01:34.796Z,25.02
2018-06-12T13:04:00.760Z,25.04
2018-06-12T13:06:26.721Z,25.08
2018-06-12T13:08:52.697Z,25.06
2018-06-12T13:11:18.655Z,25.05
2018-06-12T13:13:44.625Z,25.10
2018-06-12T13:16:10.596Z,25.06
2018-06-12T13:18:36.571Z,25.13
2018-06-12T13:21:02.532Z,25.07
2018-06-12T13:23:28.489Z,25.15
2018-06-12T13:25:54.444Z,25.13
2018-06-12T13:28:20.409Z,25.07
2018-06-12T13:30:46.368Z,25.10
2018-06-12T13:33:12.384Z,25.20
2018-06-12T13:35:38.399Z,25.18
2018-06-12T13:38:04.394Z,25.14
2018-06-12T13:40:30.396Z,25.13
2018-06-12T13:42:56.390Z,25.07
2018-06-12T13:45:22.345Z,25.03
2018-06-12T13:47:48.405Z,25.13
2018-06-12T13:50:14.354Z,25.11
2018-06-12T13:52:40.360Z,25.12
2018-06-12T13:55:06.354Z,25.21
2018-06-12T13:57:32.336Z,25.09
2018-06-12T13:59:58.300Z,25.10
2018-06-12T14:02:24.304Z,25.20
2018-06-12T14:04:50.258Z,25.32
2018-06-12T14:07:16.253Z,25.26
2018-06-12T14:09:42.229Z,25.16
2018-06-12T14:12:08.182Z,25.29
2018-06-12T14:14:34.163Z,25.24
2018-06-12T14:17:00.245Z,25.33
2018-06-12T14:19:26.255Z,25.34
2018-06-12T14:21:53.339Z,25.29
2018-06-12T14:24:19.394Z,25.20
2018-06-12T14:26:45.366Z,25.14
2018-06-12T14:29:11.384Z,25.28
2018-06-12T14:31:37.437Z,25.22
2018-06-12T14:34:03.399Z,25.20
2018-06-12T14:36:29.382Z,25.30
2018-06-12T14:38:55.381Z,25.15
2018-06-12T14:41:21.363Z,25.14
2018-06-12T14:43:47.358Z,25.21
2018-06-12T14:46:13.329Z,25.19
2018-06-12T14:48:39.309Z,25.10
2018-06-12T14:51:05.364Z,25.19
2018-06-12T14:53:31.359Z,25.06
2018-06-12T14:55:57.332Z,25.16
2018-06-12T14:58:23.349Z,25.29
2018-06-12T15:00:49.298Z,25.34
2018-06-12T15:03:15.248Z,25.31
2018-06-12T15:05:41.224Z,25.28
2018-06-12T15:08:07.201Z,25.27
2018-06-12T15:10:33.178Z,25.26
2018-06-12T15:12:59.200Z,25.29
2018-06-12T15:15:25.182Z,25.27
2018-06-12T15:17:51.206Z,25.25
2018-06-12T15:20:17.189Z,25.26
2018-06-12T15:22:43.172Z,25.16
2018-06-12T15:25:09.264Z,25.14
2018-06-12T15:27:35.261Z,25.16
2018-06-12T15:30:01.235Z,25.17
2018-06-12T15:32:27.207Z,25.16
2018-06-12T15:34:53.194Z,25.19
2018-06-12T15:37:19.212Z,25.21
2018-06-12T15:39:45.187Z,25.17
2018-06-12T15:42:11.152Z,25.29
2018-06-12T15:44:37.156Z,25.23
2018-06-12T15:47:03.172Z,25.41
2018-06-12T15:49:29.156Z,25.28
2018-06-12T15:51:55.128Z,25.23
2018-06-12T15:54:21.139Z,25.30
2018-06-12T15:56:47.115Z,25.25
2018-06-12T15:59:13.109Z,25.32
2018-06-12T16:01:39.237Z,25.10
2018-06-12T16:04:05.227Z,25.23
2018-06-12T16:06:31.232Z,25.18
2018-06-12T16:08:57.209Z,25.18
2018-06-12T16:11:23.179Z,25.17
2018-06-12T16:13:49.183Z,25.06
2018-06-12T16:16:15.156Z,25.16
2018-06-12T16:18:41.112Z,25.13
2018-06-12T16:21:07.100Z,25.23
2018-06-12T16:23:33.110Z,25.02
2018-06-12T16:25:59.140Z,25.32
2018-06-12T16:28:25.188Z,25.16
2018-06-12T16:30:51.162Z,25.33
2018-06-12T16:33:17.155Z,25.33
2018-06-12T16:35:43.168Z,25.34
2018-06-12T16:38:09.226Z,25.32
2018-06-12T16:40:35.217Z,25.29
2018-06-12T16:43:01.207Z,25.21
2018-06-12T16:45:27.281Z,25.33
2018-06-12T16:47:53.288Z,25.36
2018-06-12T16:50:20.373Z,25.31
2018-06-12T16:52:46.358Z,25.25
2018-06-12T16:55:12.326Z,25.28
2018-06-12T16:57:38.370Z,25.37
2018-06-12T17:00:04.386Z,25.36
2018-06-12T17:02:30.384Z,25.44
2018-06-12T17:04:56.452Z,25.50
2018-06-12T17:07:22.441Z,25.44
2018-06-12T17:09:48.487Z,25.37
2018-06-12T17:12:14.617Z,25.34
2018-06-12T17:14:40.581Z,25.36
2018-06-12T17:17:06.545Z,25.34
2018-06-12T17:19:32.546Z,25.44
2018-06-12T17:21:58.571Z,25.36
2018-06-12T17:24:24.561Z,25.33
2018-06-12T17:26:50.554Z,25.36
2018-06-12T17:29:16.533Z,25.33
2018-06-12T17:31:42.505Z,25.37
2018-06-12T17:34:08.539Z,25.23
2018-06-12T17:36:34.677Z,25.30
2018-06-12T17:39:00.720Z,25.27
2018-06-12T17:41:26.761Z,25.32
2018-06-12T17:43:52.730Z,25.34
2018-06-12T17:46:20.812Z,25.40
2018-06-12T17:48:46.786Z,25.32
2018-06-12T17:51:14.042Z,25.44
2018-06-12T17:53:40.046Z,25.49
2018-06-12T17:56:06.147Z,25.42
2018-06-12T17:58:32.159Z,25.41
2018-06-12T18:01:00.136Z,25.47
2018-06-12T18:03:26.111Z,25.52
2018-06-12T18:05:52.081Z,25.49
2018-06-12T18:08:18.069Z,25.47
2018-06-12T18:10:44.049Z,25.53
2018-06-12T18:13:10.053Z,25.41
2018-06-12T18:15:36.036Z,25.47
2018-06-12T18:18:02.104Z,25.48
2018-06-12T18:20:28.176Z,25.34
2018-06-12T18:22:54.149Z,25.41
2018-06-12T18:25:20.117Z,25.40
2018-06-12T18:27:46.176Z,25.41
2018-06-12T18:30:12.140Z,25.41
2018-06-12T18:32:38.129Z,25.44
2018-06-12T18:35:04.124Z,25.43
2018-06-12T18:37:30.175Z,25.43
2018-06-12T18:39:56.171Z,25.53
2018-06-12T18:42:22.152Z,25.48
2018-06-12T18:44:48.133Z,25.57
2018-06-12T18:47:14.137Z,25.48
2018-06-12T18:49:40.144Z,25.47
2018-06-12T18:52:06.135Z,25.43
2018-06-12T18:54:32.132Z,25.46
2018-06-12T18:56:58.132Z,25.40
2018-06-12T18:59:24.138Z,25.37
2018-06-12T19:01:50.147Z,25.39
2018-06-12T19:04:16.159Z,25.38
2018-06-12T19:06:42.256Z,25.39
2018-06-12T19:09:08.216Z,25.42
2018-06-12T19:11:34.181Z,25.35
2018-06-12T19:14:00.156Z,25.32
2018-06-12T19:16:26.182Z,25.39
2018-06-12T19:18:52.172Z,25.36
2018-06-12T19:21:18.178Z,25.43
2018-06-12T19:23:44.179Z,25.43
2018-06-12T19:26:10.175Z,25.45
2018-06-12T19:28:36.152Z,25.52
2018-06-12T19:31:02.207Z,25.49
2018-06-12T19:33:28.296Z,25.39
2018-06-12T19:35:54.275Z,25.39
2018-06-12T19:38:20.289Z,25.50
2018-06-12T19:40:46.267Z,25.45
2018-06-12T19:43:12.265Z,25.40
2018-06-12T19:45:38.278Z,25.41
2018-06-12T19:48:04.225Z,25.41
2018-06-12T19:50:30.235Z,25.37
2018-06-12T19:52:56.257Z,25.40
2018-06-12T19:55:22.214Z,25.34
2018-06-12T19:57:48.224Z,25.32
2018-06-12T20:00:14.240Z,25.40
2018-06-12T20:02:40.235Z,25.41
2018-06-12T20:05:06.299Z,25.43
2018-06-12T20:07:32.266Z,25.43
2018-06-12T20:09:58.235Z,25.43
2018-06-12T20:12:24.208Z,25.36
2018-06-12T20:14:50.185Z,25.32
2018-06-12T20:17:16.159Z,25.27
2018-06-12T20:19:42.220Z,25.38
2018-06-12T20:22:08.186Z,25.41
2018-06-12T20:24:34.183Z,25.37
2018-06-12T20:27:00.150Z,25.28
2018-06-12T20:29:26.236Z,25.34
2018-06-12T20:31:52.202Z,25.25
2018-06-12T20:34:18.189Z,25.28
2018-06-12T20:36:44.241Z,25.27
2018-06-12T20:39:10.235Z,25.32
2018-06-12T20:41:36.259Z,25.22
2018-06-12T20:44:02.281Z,25.32
2018-06-12T20:46:28.345Z,25.34
2018-06-12T20:48:54.376Z,25.38
2018-06-12T20:51:20.539Z,25.33
2018-06-12T20:53:46.540Z,25.38
2018-06-12T20:56:12.531Z,25.37
2018-06-12T20:58:38.487Z,25.29
2018-06-12T21:01:04.467Z,25.22
2018-06-12T21:03:30.479Z,25.34
2018-06-12T21:05:56.477Z,25.32
2018-06-12T21:08:22.468Z,25.03
2018-06-12T21:10:48.514Z,25.30
2018-06-12T21:13:14.514Z,25.24
2018-06-12T21:15:40.492Z,25.13
2018-06-12T21:18:06.457Z,25.22
2018-06-12T21:20:32.550Z,25.10
2018-06-12T21:22:58.511Z,25.09
2018-06-12T21:25:24.488Z,25.01
2018-06-12T21:27:50.488Z,25.07
2018-06-12T21:30:16.493Z,25.11
2018-06-12T21:32:42.490Z,25.11
2018-06-12T21:35:08.478Z,25.14
2018-06-12T21:37:34.459Z,25.08
2018-06-12T21:40:00.455Z,25.18
2018-06-12T21:42:26.422Z,25.10
2018-06-12T21:44:52.431Z,24.99
2018-06-12T21:47:18.414Z,24.79
2018-06-12T21:49:44.419Z,24.84
2018-06-12T21:52:10.407Z,24.86
2018-06-12T21:54:36.470Z,24.83
2018-06-12T21:57:02.454Z,24.81
2018-06-12T21:59:28.428Z,24.89
2018-06-12T22:01:54.493Z,24.88
2018-06-12T22:04:20.533Z,24.71
2018-06-12T22:06:46.495Z,24.87
2018-06-12T22:09:12.495Z,24.76
2018-06-12T22:11:38.489Z,24.67
2018-06-12T22:14:04.476Z,24.67
2018-06-12T22:16:30.741Z,24.74
2018-06-12T22:18:56.797Z,24.86
2018-06-12T22:21:22.796Z,24.91
2018-06-12T22:23:48.808Z,24.92
2018-06-12T22:26:14.797Z,24.91
2018-06-12T22:28:40.785Z,24.90
2018-06-12T22:31:06.753Z,24.95
2018-06-12T22:33:32.722Z,24.78
2018-06-12T22:35:58.712Z,24.78
2018-06-12T22:38:24.684Z,24.82
2018-06-12T22:40:50.677Z,24.76
2018-06-12T22:43:16.669Z,24.67
2018-06-12T22:45:42.680Z,24.82
2018-06-12T22:48:09.646Z,24.72
2018-06-12T22:50:35.627Z,24.69
2018-06-12T22:53:01.700Z,24.71
2018-06-12T22:55:27.692Z,24.72
2018-06-12T22:57:53.669Z,24.74
2018-06-12T23:00:19.665Z,24.77
2018-06-12T23:02:45.646Z,24.97
2018-06-12T23:05:11.650Z,24.97
2018-06-12T23:07:37.780Z,25.07
2018-06-12T23:10:03.765Z,24.92
2018-06-12T23:12:29.711Z,24.85
2018-06-12T23:14:55.692Z,24.93
2018-06-12T23:17:21.691Z,24.81
2018-06-12T23:19:47.647Z,24.88
2018-06-12T23:22:13.623Z,24.80
2018-06-12T23:24:39.595Z,24.65
2018-06-12T23:27:05.596Z,24.70
2018-06-12T23:29:31.554Z,24.70
2018-06-12T23:31:57.538Z,24.70
2018-06-12T23:34:23.491Z,24.71
2018-06-12T23:36:49.470Z,24.60
2018-06-12T23:39:15.494Z,24.65
2018-06-12T23:41:41.422Z,24.60
2018-06-12T23:44:07.413Z,24.78
2018-06-12T23:46:33.381Z,24.89
2018-06-12T23:48:59.364Z,24.96
2018-06-12T23:51:25.330Z,24.97
2018-06-12T23:53:51.357Z,24.93
2018-06-12T23:56:17.305Z,24.92
2018-06-12T23:58:43.260Z,24.84
